Riverton, IL (62561)

4:19 AM CDT on July 29, 2016 (GMT -0500)
Steeplechase | | Change Station

Elev 571 ft 39.88 °N, 89.60 °W | Updated 28 seconds ago

Clear
Clear
68.5 °F
Feels Like 68.5 °F
N
0.0
Wind Variable Wind from NNW

Today
High -- | Low -- °F
--% Chance of Precip.
Yesterday
High -- | Low -- °F
Precip. -- in
Pressure 29.90 in
Visibility 10.0 miles
Clouds Clear
Dew Point 67 °F
Humidity 95%
Rainfall 0.00 in
Snow Depth Not available.
5:54 AM 8:13 PM
Waning Crescent, 23% visible
METAR KSPI 290852Z AUTO 00000KT 10SM CLR 21/19 A2991 RMK AO2 SLP124 T02060194 58005
Pressure 29.90 in
Visibility 10.0 miles
Clouds Clear
Dew Point 67 °F
Humidity 95%
Rainfall 0.00 in
Snow Depth Not available.
5:54 AM 8:13 PM
Waning Crescent, 23% visible
METAR KSPI 290852Z AUTO 00000KT 10SM CLR 21/19 A2991 RMK AO2 SLP124 T02060194 58005

10-Day Weather Forecast

Almanac

Astronomy

Jul. 29, 2016 Rise Set
Actual Time
Civil Twilight
Nautical Twilight
Astronomical Twilight
Moon
Length of Visible Light
Length of Day
Tomorrow will be .
, % of the Moon is Illuminated

Today's Extremes

State Highs State Lows

Community

WunderPhotos

Upload Photos

1,928,300 photos uploaded!

WunderBlog® & News

Nearby

Air Quality

  Air Quality AQ Index Pollutant
Not available.

Snow Depth

Station Depth Elevation

Earthquake Activity

City Distance Mag. Time & Date
Minimum magnitude displayed is 2.5.

Coastal Water Temperatures

Place Temperature

Stations

Nearby Weather Stations

Station Location Temp. Windchill Dew Point Humidity Wind Precip. Elev Updated Type
                   

Watches & Warnings

There are currently no watches in effect.